Time;durP1;ratioP1;P1;durP2;ratioP2;P2;SDS_P1;SDS_P2;PMS_P1;PMS_P2;Temp;Humidity;BMP_temperature;BMP_pressure;BME280_temperature;BME280_humidity;BME280_pressure;Samples;Min_cycle;Max_cycle;Signal;HPM_P1;HPM_P2
2023/03/22 00:00:38;;;;;;;44.70;30.05;;;13.00;99.90;;;;;;4591479;19;20014;-30
2023/03/22 00:02:29;;;;;;;42.23;30.80;;;12.90;99.90;;;;;;4591409;19;20017;-29
2023/03/22 00:04:02;;;;;;;43.17;29.97;;;12.90;99.90;;;;;;4590401;19;20014;-29
2023/03/22 00:05:33;;;;;;;39.85;29.38;;;12.90;99.90;;;;;;4590609;19;20599;-32
2023/03/22 00:07:05;;;;;;;;;;;13.00;99.90;;;;;;4591626;19;20010;-29
2023/03/22 00:08:36;;;;;;;37.60;26.87;;;12.90;99.90;;;;;;4591221;19;19918;-33
2023/03/22 00:10:08;;;;;;;;;;;12.90;99.90;;;;;;4592266;19;20357;-31
2023/03/22 00:11:40;;;;;;;41.00;28.37;;;12.90;99.90;;;;;;4590656;19;19914;-31
2023/03/22 00:13:11;;;;;;;39.67;29.80;;;13.00;99.90;;;;;;4591113;19;20458;-29
2023/03/22 00:14:44;;;;;;;;;;;12.90;99.90;;;;;;4591412;19;20014;-31
2023/03/22 00:16:16;;;;;;;40.85;31.52;;;12.90;99.90;;;;;;4590661;19;20337;-30
2023/03/22 00:17:49;;;;;;;;;;;12.90;99.90;;;;;;4592010;19;20023;-29
2023/03/22 00:19:20;;;;;;;40.20;29.00;;;12.90;99.90;;;;;;4590057;19;19918;-29
2023/03/22 00:20:53;;;;;;;37.65;27.48;;;12.90;99.90;;;;;;4590510;19;20771;-29
2023/03/22 00:22:24;;;;;;;40.23;28.90;;;12.90;99.90;;;;;;4591130;19;20416;-28
2023/03/22 00:23:56;;;;;;;37.77;29.10;;;13.00;99.90;;;;;;4590866;19;20018;-30
2023/03/22 00:25:30;;;;;;;39.10;29.03;;;12.90;99.90;;;;;;4590733;19;20006;-30
2023/03/22 00:27:03;;;;;;;42.00;30.40;;;12.90;99.90;;;;;;4588278;19;20847;-29
2023/03/22 00:28:36;;;;;;;39.67;30.63;;;12.90;99.90;;;;;;4590568;19;20007;-29
2023/03/22 00:30:09;;;;;;;38.07;28.77;;;12.90;99.90;;;;;;4590573;19;20417;-30
2023/03/22 00:31:42;;;;;;;38.43;29.10;;;12.90;99.90;;;;;;4590448;19;20037;-29
2023/03/22 00:33:13;;;;;;;38.95;29.52;;;12.90;99.90;;;;;;4591311;19;20034;-29
2023/03/22 00:34:45;;;;;;;41.90;31.38;;;12.90;99.90;;;;;;4590907;19;20018;-30
2023/03/22 00:36:17;;;;;;;37.80;27.67;;;12.90;99.90;;;;;;4589792;19;20015;-29
2023/03/22 00:37:50;;;;;;;40.13;29.37;;;12.90;99.90;;;;;;4590437;19;20014;-29
2023/03/22 00:39:22;;;;;;;39.80;28.67;;;12.90;99.90;;;;;;4591121;19;20089;-32
2023/03/22 00:40:55;;;;;;;39.80;30.03;;;12.90;99.90;;;;;;4590796;19;20014;-29
2023/03/22 00:42:28;;;;;;;41.60;29.83;;;12.90;99.90;;;;;;4589041;19;20484;-29
2023/03/22 00:44:01;;;;;;;41.33;30.07;;;12.90;99.90;;;;;;4589962;19;20011;-30
2023/03/22 00:45:36;;;;;;;39.97;29.83;;;12.90;99.90;;;;;;4589642;19;20436;-29
2023/03/22 00:47:09;;;;;;;40.47;31.67;;;12.90;99.90;;;;;;4590930;19;20002;-32
2023/03/22 00:48:41;;;;;;;40.93;30.17;;;12.90;99.90;;;;;;4590075;19;20031;-29
2023/03/22 00:50:15;;;;;;;44.10;32.67;;;12.90;99.90;;;;;;4590420;19;20014;-29
2023/03/22 00:51:48;;;;;;;42.43;31.40;;;12.90;99.90;;;;;;4590828;19;20018;-28
2023/03/22 00:53:20;;;;;;;44.90;32.37;;;12.90;99.90;;;;;;4590958;19;20010;-30
2023/03/22 00:54:51;;;;;;;39.67;30.98;;;12.80;99.90;;;;;;4587921;19;20014;-29
2023/03/22 00:56:24;;;;;;;;;;;12.80;99.90;;;;;;4590413;19;20358;-30
2023/03/22 00:57:55;;;;;;;37.88;28.20;;;12.90;99.90;;;;;;4589887;19;20249;-28
2023/03/22 00:59:28;;;;;;;41.70;31.67;;;12.80;99.90;;;;;;4590477;19;20030;-30
2023/03/22 01:00:59;;;;;;;;;;;12.80;99.90;;;;;;4590997;19;20365;-29
2023/03/22 01:02:32;;;;;;;39.63;29.90;;;12.80;99.90;;;;;;4589873;19;19938;-29
2023/03/22 01:04:06;;;;;;;42.93;31.33;;;12.80;99.90;;;;;;4590523;19;20022;-28
2023/03/22 01:05:37;;;;;;;37.88;30.00;;;12.90;99.90;;;;;;4589734;19;20073;-30
2023/03/22 01:07:10;;;;;;;39.17;29.53;;;12.80;99.90;;;;;;4589998;19;20021;-29
2023/03/22 01:08:43;;;;;;;37.93;29.23;;;12.80;99.90;;;;;;4588909;19;20024;-30
2023/03/22 01:10:16;;;;;;;38.43;29.93;;;12.90;99.90;;;;;;4590428;19;20347;-29
2023/03/22 01:11:47;;;;;;;41.30;31.10;;;12.80;99.90;;;;;;4588138;19;20014;-29
2023/03/22 01:13:20;;;;;;;38.60;27.97;;;12.90;99.90;;;;;;4589475;19;20011;-30
2023/03/22 01:14:52;;;;;;;;;;;12.80;99.90;;;;;;4591147;19;20019;-30
2023/03/22 01:16:23;;;;;;;35.03;27.60;;;12.90;99.90;;;;;;4589731;19;19919;-30
2023/03/22 01:17:55;;;;;;;37.10;28.73;;;12.80;99.90;;;;;;4589458;19;20021;-29
2023/03/22 01:19:27;;;;;;;37.00;29.17;;;12.80;99.90;;;;;;4589905;19;20041;-29
2023/03/22 01:21:00;;;;;;;33.63;27.27;;;12.80;99.90;;;;;;4590278;19;20079;-29
2023/03/22 01:22:33;;;;;;;31.70;27.47;;;12.80;99.90;;;;;;4589483;19;20014;-29
2023/03/22 01:24:05;;;;;;;36.97;28.20;;;12.80;99.90;;;;;;4588749;19;20011;-30
2023/03/22 01:25:38;;;;;;;34.90;28.10;;;12.80;99.90;;;;;;4589410;19;20028;-30
2023/03/22 01:27:10;;;;;;;38.40;27.67;;;12.80;99.90;;;;;;4588784;19;20468;-28
2023/03/22 01:28:42;;;;;;;36.22;27.92;;;12.80;99.90;;;;;;4589946;19;20070;-29
2023/03/22 01:30:16;;;;;;;35.87;27.77;;;12.80;99.90;;;;;;4589538;19;20021;-30
2023/03/22 01:31:47;;;;;;;35.35;27.00;;;12.80;99.90;;;;;;4589755;19;20508;-32
2023/03/22 01:33:19;;;;;;;34.08;27.70;;;12.80;99.90;;;;;;4590035;19;20370;-30
2023/03/22 01:34:52;;;;;;;35.87;28.10;;;12.80;99.90;;;;;;4589498;19;20330;-28
2023/03/22 01:36:23;;;;;;;32.88;26.58;;;12.80;99.90;;;;;;4589591;19;20023;-29
2023/03/22 01:37:56;;;;;;;34.33;26.33;;;12.80;99.90;;;;;;4588456;19;20014;-31
2023/03/22 01:39:27;;;;;;;34.22;26.67;;;12.80;99.90;;;;;;4589777;19;20015;-29
2023/03/22 01:40:58;;;;;;;32.83;26.48;;;12.80;99.90;;;;;;4589483;19;20015;-33
2023/03/22 01:42:30;;;;;;;32.08;25.35;;;12.80;99.90;;;;;;4589669;19;20014;-29
2023/03/22 01:44:11;;;;;;;33.97;26.40;;;12.80;99.90;;;;;;4588547;19;20084;-32
2023/03/22 01:45:47;;;;;;;33.63;26.20;;;12.80;99.90;;;;;;4589982;19;20441;-29
2023/03/22 01:47:18;;;;;;;33.73;26.93;;;12.80;99.90;;;;;;4588120;19;20397;-29
2023/03/22 01:48:52;;;;;;;34.73;27.37;;;12.70;99.90;;;;;;4591870;19;20021;-29
2023/03/22 01:50:24;;;;;;;32.53;27.40;;;12.80;99.90;;;;;;4594353;19;20017;-29
2023/03/22 01:51:59;;;;;;;35.25;26.73;;;12.70;99.90;;;;;;4593397;19;20485;-30
2023/03/22 01:53:33;;;;;;;33.73;25.87;;;12.70;99.90;;;;;;4592775;19;20042;-29
2023/03/22 01:55:05;;;;;;;35.70;27.30;;;12.70;99.90;;;;;;4592693;19;20385;-28
2023/03/22 01:56:39;;;;;;;31.43;25.93;;;12.80;99.90;;;;;;4592841;19;20369;-30
2023/03/22 01:58:16;;;;;;;35.33;26.27;;;12.70;99.90;;;;;;4592429;19;20015;-30
2023/03/22 01:59:49;;;;;;;36.33;27.60;;;12.70;99.90;;;;;;4592837;19;20452;-33
2023/03/22 02:01:22;;;;;;;35.30;27.20;;;12.80;99.90;;;;;;4593510;19;20007;-31
2023/03/22 02:02:53;;;;;;;32.65;26.08;;;12.70;99.90;;;;;;4593771;19;20086;-30
2023/03/22 02:04:33;;;;;;;36.13;27.43;;;12.80;99.90;;;;;;4592899;19;20046;-29
2023/03/22 02:06:04;;;;;;;35.93;27.60;;;12.70;99.90;;;;;;4591849;19;20019;-29
2023/03/22 02:07:36;;;;;;;31.23;25.90;;;12.70;99.90;;;;;;4593257;19;20510;-29
2023/03/22 02:09:08;;;;;;;;;;;12.70;99.90;;;;;;4594685;19;20018;-29
2023/03/22 02:10:40;;;;;;;34.67;26.33;;;12.70;99.90;;;;;;4594550;19;20005;-29
2023/03/22 02:12:29;;;;;;;33.90;26.00;;;12.70;99.90;;;;;;4591720;19;20014;-29
2023/03/22 02:14:24;;;;;;;32.85;26.13;;;12.70;99.90;;;;;;4593417;19;20014;-29
2023/03/22 02:16:34;;;;;;;32.63;26.87;;;12.70;99.90;;;;;;4593889;19;20027;-30
2023/03/22 02:18:15;;;;;;;33.27;26.40;;;12.70;99.90;;;;;;4591954;19;20463;-29
2023/03/22 02:20:32;;;;;;;32.50;26.67;;;12.70;99.90;;;;;;4593585;19;20464;-30
2023/03/22 02:22:22;;;;;;;32.17;26.07;;;12.70;99.90;;;;;;4592953;19;20507;-29
2023/03/22 02:24:12;;;;;;;35.27;26.73;;;12.70;99.90;;;;;;4593745;19;20405;-29
2023/03/22 02:26:22;;;;;;;36.40;27.83;;;12.60;99.90;;;;;;4594067;19;20429;-28
2023/03/22 02:28:19;;;;;;;34.90;27.23;;;12.70;99.90;;;;;;4593701;19;20549;-28
2023/03/22 02:30:05;;;;;;;37.07;28.33;;;12.70;99.90;;;;;;4593398;19;20010;-28
2023/03/22 02:31:49;;;;;;;32.97;26.57;;;12.60;99.90;;;;;;4592180;19;20409;-30
2023/03/22 02:34:03;;;;;;;34.03;26.20;;;12.70;99.90;;;;;;4592810;19;20005;-30
2023/03/22 02:35:37;;;;;;;37.50;28.35;;;12.70;99.90;;;;;;4591246;19;20011;-32
2023/03/22 02:37:23;;;;;;;39.03;29.97;;;12.70;99.90;;;;;;4590850;19;20011;-29
2023/03/22 02:39:11;;;;;;;36.97;28.53;;;12.70;99.90;;;;;;4589713;19;20042;-29
2023/03/22 02:40:51;;;;;;;39.17;29.00;;;12.70;99.90;;;;;;4590923;19;20010;-29
2023/03/22 02:42:41;;;;;;;36.10;28.53;;;12.70;99.90;;;;;;4590792;19;20010;-31
2023/03/22 02:44:27;;;;;;;34.93;28.13;;;12.70;99.90;;;;;;4591083;19;20774;-29
2023/03/22 02:46:11;;;;;;;35.63;28.53;;;12.70;99.90;;;;;;4590673;19;20437;-31
2023/03/22 02:48:02;;;;;;;39.03;29.47;;;12.70;99.90;;;;;;4590614;19;21088;-30
2023/03/22 02:49:46;;;;;;;35.75;28.80;;;12.70;99.90;;;;;;4590937;19;20428;-31
2023/03/22 02:51:23;;;;;;;39.07;29.63;;;12.70;99.90;;;;;;4590930;19;20038;-31
2023/03/22 02:53:08;;;;;;;34.50;28.23;;;12.70;99.90;;;;;;4590631;19;20651;-32
2023/03/22 02:55:00;;;;;;;36.20;29.13;;;12.70;99.90;;;;;;4591376;19;20003;-31
2023/03/22 02:56:45;;;;;;;37.30;28.87;;;12.70;99.90;;;;;;4590831;19;20415;-30
2023/03/22 02:58:47;;;;;;;37.70;29.13;;;12.70;99.90;;;;;;4590411;19;20447;-30
2023/03/22 03:00:18;;;;;;;38.87;28.97;;;12.70;99.90;;;;;;4589969;19;20014;-30
2023/03/22 03:01:53;;;;;;;36.60;28.10;;;12.70;99.90;;;;;;4590604;19;20437;-31
2023/03/22 03:03:28;;;;;;;39.80;28.97;;;12.70;99.90;;;;;;4590433;19;20863;-30
2023/03/22 03:05:00;;;;;;;38.13;28.43;;;12.70;99.90;;;;;;4590735;19;20031;-30
2023/03/22 03:06:37;;;;;;;38.37;29.43;;;12.70;99.90;;;;;;4589527;19;20019;-29
2023/03/22 03:08:11;;;;;;;37.47;30.30;;;12.70;99.90;;;;;;4590259;19;20414;-29
2023/03/22 03:09:43;;;;;;;36.60;29.80;;;12.70;99.90;;;;;;4590418;19;20044;-28
2023/03/22 03:11:16;;;;;;;33.70;28.57;;;12.70;99.90;;;;;;4589986;19;20078;-30
2023/03/22 03:12:48;;;;;;;39.20;29.70;;;12.70;99.90;;;;;;4590401;19;20046;-32
2023/03/22 03:14:20;;;;;;;38.57;30.50;;;12.70;99.90;;;;;;4591604;19;20437;-29
2023/03/22 03:15:53;;;;;;;36.75;29.50;;;12.70;99.90;;;;;;4592850;19;20027;-35
2023/03/22 03:17:40;;;;;;;38.43;30.10;;;12.70;99.90;;;;;;4591030;19;20014;-30
2023/03/22 03:19:19;;;;;;;38.10;29.30;;;12.70;99.90;;;;;;4590823;19;20909;-29
2023/03/22 03:21:20;;;;;;;40.73;30.83;;;12.70;99.90;;;;;;4590930;19;20429;-31
2023/03/22 03:23:00;;;;;;;37.47;28.67;;;12.70;99.90;;;;;;4590910;19;20819;-30
2023/03/22 03:24:39;;;;;;;36.53;28.37;;;12.70;99.90;;;;;;4592006;19;20463;-31
2023/03/22 03:26:12;;;;;;;34.47;28.27;;;12.70;99.90;;;;;;4590721;19;20018;-31
2023/03/22 03:27:48;;;;;;;;;;;12.70;99.90;;;;;;4592735;19;20018;-29
2023/03/22 03:29:39;;;;;;;36.30;28.93;;;12.70;99.90;;;;;;4591836;19;20259;-28
2023/03/22 03:31:34;;;;;;;38.03;28.43;;;12.70;99.90;;;;;;4590912;19;20424;-32
2023/03/22 03:33:08;;;;;;;38.13;28.63;;;12.70;99.90;;;;;;4590951;19;20010;-30
2023/03/22 03:34:51;;;;;;;38.67;29.00;;;12.70;99.90;;;;;;4590719;19;20473;-30
2023/03/22 03:36:22;;;;;;;39.57;31.43;;;12.70;99.90;;;;;;4591865;19;20009;-32
2023/03/22 03:37:58;;;;;;;37.20;30.53;;;12.70;99.90;;;;;;4590931;19;19998;-29
2023/03/22 03:39:31;;;;;;;40.37;30.93;;;12.70;99.90;;;;;;4590539;19;20464;-29
2023/03/22 03:41:05;;;;;;;37.47;27.80;;;12.70;99.90;;;;;;4590801;19;20441;-28
2023/03/22 03:42:38;;;;;;;42.23;31.00;;;12.70;99.90;;;;;;4589505;19;20007;-31
2023/03/22 03:44:11;;;;;;;35.77;29.70;;;12.70;99.90;;;;;;4591001;19;20039;-33
2023/03/22 03:45:42;;;;;;;41.05;28.60;;;12.70;99.90;;;;;;4590566;19;20086;-29
2023/03/22 03:47:15;;;;;;;38.13;30.43;;;12.70;99.90;;;;;;4590723;19;20014;-32
2023/03/22 03:48:47;;;;;;;39.17;29.20;;;12.70;99.90;;;;;;4591681;19;20078;-31
2023/03/22 03:50:19;;;;;;;40.17;30.23;;;12.70;99.90;;;;;;4590404;19;20075;-30
2023/03/22 03:51:53;;;;;;;37.17;30.33;;;12.70;99.90;;;;;;4590360;19;20059;-29
2023/03/22 03:53:25;;;;;;;37.77;29.87;;;12.70;99.90;;;;;;4590936;19;20015;-28
2023/03/22 03:54:57;;;;;;;36.13;29.37;;;12.70;99.90;;;;;;4591112;19;20065;-29
2023/03/22 03:56:29;;;;;;;38.27;29.90;;;12.70;99.90;;;;;;4591548;19;20470;-29
2023/03/22 03:58:01;;;;;;;37.17;29.77;;;12.70;99.90;;;;;;4588870;19;20066;-31
2023/03/22 03:59:32;;;;;;;37.28;30.40;;;12.70;99.90;;;;;;4590290;19;20022;-28
2023/03/22 04:01:05;;;;;;;38.80;28.47;;;12.70;99.90;;;;;;4591612;19;20015;-29
2023/03/22 04:02:38;;;;;;;39.97;30.30;;;12.70;99.90;;;;;;4591200;19;20015;-29
2023/03/22 04:04:09;;;;;;;35.67;29.63;;;12.70;99.90;;;;;;4591084;19;20509;-30
2023/03/22 04:05:43;;;;;;;36.20;29.03;;;12.70;99.90;;;;;;4590373;19;20018;-32
2023/03/22 04:07:14;;;;;;;39.37;29.87;;;12.70;99.90;;;;;;4591427;19;20377;-30
2023/03/22 04:08:52;;;;;;;;;;;12.70;99.90;;;;;;4590668;19;20014;-30
2023/03/22 04:10:23;;;;;;;39.50;29.73;;;12.70;99.90;;;;;;4591183;19;19978;-28
2023/03/22 04:11:55;;;;;;;37.15;29.17;;;12.70;99.90;;;;;;4588106;19;20017;-29
2023/03/22 04:13:26;;;;;;;41.80;31.23;;;12.70;99.90;;;;;;4590603;19;20010;-29
2023/03/22 04:14:57;;;;;;;36.47;29.02;;;12.70;99.90;;;;;;4592195;19;20011;-30
2023/03/22 04:16:29;;;;;;;;;;;12.70;99.90;;;;;;4594067;19;20029;-33
2023/03/22 04:18:00;;;;;;;37.93;28.43;;;12.70;99.90;;;;;;4592346;19;19911;-31
2023/03/22 04:19:31;;;;;;;;;;;12.80;99.90;;;;;;4594152;19;20007;-30
2023/03/22 04:21:04;;;;;;;37.83;28.15;;;12.80;99.90;;;;;;4592891;19;20006;-30
2023/03/22 04:22:37;;;;;;;36.47;30.73;;;12.70;99.90;;;;;;4591824;19;20011;-30
2023/03/22 04:24:09;;;;;;;35.17;29.40;;;12.80;99.90;;;;;;4592671;19;20476;-30
2023/03/22 04:25:42;;;;;;;40.67;29.97;;;12.80;99.90;;;;;;4591936;19;20464;-29
2023/03/22 04:27:13;;;;;;;37.17;30.03;;;12.70;99.90;;;;;;4592371;19;20070;-31
2023/03/22 04:28:45;;;;;;;39.00;30.63;;;12.70;99.90;;;;;;4593130;19;20002;-29
2023/03/22 04:30:21;;;;;;;40.95;30.67;;;12.70;99.90;;;;;;4592330;19;20480;-30
2023/03/22 04:31:53;;;;;;;36.90;29.77;;;12.80;99.90;;;;;;4588935;19;20047;-29
2023/03/22 04:33:39;;;;;;;41.03;30.77;;;12.80;99.90;;;;;;4590094;19;21057;-28
2023/03/22 04:35:12;;;;;;;39.63;30.90;;;12.80;99.90;;;;;;4590238;19;20021;-28
2023/03/22 04:36:45;;;;;;;;;;;12.80;99.90;;;;;;4588167;19;20448;-32
2023/03/22 04:38:17;;;;;;;40.17;31.52;;;12.80;99.90;;;;;;4588410;19;19922;-30
2023/03/22 04:39:48;;;;;;;42.00;31.43;;;12.80;99.90;;;;;;4587356;19;20442;-30
2023/03/22 04:41:20;;;;;;;39.90;31.20;;;12.80;99.90;;;;;;4589312;19;20337;-29
2023/03/22 04:42:56;;;;;;;39.83;31.80;;;12.80;99.90;;;;;;4590791;19;20475;-29
2023/03/22 04:44:27;;;;;;;38.63;30.83;;;12.80;99.90;;;;;;4589149;19;21051;-28
2023/03/22 04:46:00;;;;;;;40.90;32.88;;;12.80;99.90;;;;;;4587362;19;20014;-29
2023/03/22 04:47:32;;;;;;;40.50;31.20;;;12.80;99.90;;;;;;4586558;19;20037;-30
2023/03/22 04:49:04;;;;;;;42.58;31.13;;;12.80;99.90;;;;;;4587549;19;20017;-29
2023/03/22 04:50:35;;;;;;;38.83;31.30;;;12.80;99.90;;;;;;4586969;19;20011;-29
2023/03/22 04:52:06;;;;;;;42.65;31.73;;;12.80;99.90;;;;;;4587147;19;20338;-27
2023/03/22 04:53:38;;;;;;;39.97;32.15;;;12.80;99.90;;;;;;4586982;19;20039;-27
2023/03/22 04:55:09;;;;;;;38.80;31.52;;;12.80;99.90;;;;;;4585828;19;20504;-29
2023/03/22 04:56:40;;;;;;;38.75;31.20;;;12.80;99.90;;;;;;4586579;19;20014;-30
2023/03/22 04:58:12;;;;;;;41.85;32.60;;;12.80;99.90;;;;;;4585377;19;20014;-31
2023/03/22 04:59:43;;;;;;;41.30;31.98;;;12.80;99.90;;;;;;4585682;19;20071;-30
2023/03/22 05:01:16;;;;;;;41.17;32.00;;;12.90;99.90;;;;;;4587859;19;20003;-28
2023/03/22 05:02:48;;;;;;;43.27;32.80;;;12.90;99.90;;;;;;4589677;19;20038;-31
2023/03/22 05:04:19;;;;;;;42.17;31.23;;;12.90;99.90;;;;;;4590170;19;20469;-29
2023/03/22 05:05:56;;;;;;;45.57;34.47;;;12.90;99.90;;;;;;4590044;19;20003;-31
2023/03/22 05:07:29;;;;;;;45.60;32.90;;;12.90;99.90;;;;;;4590977;19;20005;-28
2023/03/22 05:09:00;;;;;;;46.22;34.88;;;12.90;99.90;;;;;;4590129;19;20007;-26
2023/03/22 05:10:33;;;;;;;41.07;32.80;;;12.90;99.90;;;;;;4590528;19;20032;-28
2023/03/22 05:12:05;;;;;;;;;;;12.90;99.90;;;;;;4590147;19;20019;-30
2023/03/22 05:13:36;;;;;;;43.77;33.23;;;12.90;99.90;;;;;;4590199;19;19914;-32
2023/03/22 05:15:08;;;;;;;43.10;31.83;;;12.90;99.90;;;;;;4588939;19;20031;-29
2023/03/22 05:16:41;;;;;;;43.93;34.60;;;12.90;99.90;;;;;;4589646;19;20436;-32
2023/03/22 05:18:14;;;;;;;46.93;33.77;;;12.90;99.90;;;;;;4590308;19;20040;-31
2023/03/22 05:19:47;;;;;;;51.57;37.47;;;12.90;99.90;;;;;;4589646;19;21074;-31
2023/03/22 05:21:21;;;;;;;59.97;40.43;;;12.90;99.90;;;;;;4590071;19;20018;-29
2023/03/22 05:22:55;;;;;;;59.47;40.90;;;12.90;99.90;;;;;;4590623;19;20018;-29
2023/03/22 05:24:29;;;;;;;63.27;40.33;;;12.90;99.90;;;;;;4593337;19;20403;-31
2023/03/22 05:26:03;;;;;;;60.70;39.00;;;12.80;99.90;;;;;;4594031;19;21065;-30
2023/03/22 05:27:37;;;;;;;59.67;39.20;;;12.90;99.90;;;;;;4594988;19;20010;-32
2023/03/22 05:29:09;;;;;;;58.27;38.53;;;12.90;99.90;;;;;;4594668;19;20014;-29
2023/03/22 05:30:42;;;;;;;62.73;41.90;;;12.90;99.90;;;;;;4595221;19;20380;-29
2023/03/22 05:32:17;;;;;;;63.77;40.73;;;12.80;99.90;;;;;;4594367;19;20066;-27
2023/03/22 05:33:50;;;;;;;55.50;38.87;;;12.90;99.90;;;;;;4594865;19;20031;-31
2023/03/22 05:35:22;;;;;;;48.60;36.37;;;12.90;99.90;;;;;;4593656;19;20010;-27
2023/03/22 05:36:53;;;;;;;52.80;37.97;;;12.90;99.90;;;;;;4594838;19;20013;-30
2023/03/22 05:38:26;;;;;;;52.03;39.17;;;12.90;99.90;;;;;;4593308;19;20003;-29
2023/03/22 05:39:57;;;;;;;48.93;37.17;;;13.00;99.90;;;;;;4594811;19;20022;-26
2023/03/22 05:41:32;;;;;;;52.70;39.70;;;13.00;99.90;;;;;;4594207;19;20010;-27
2023/03/22 05:43:03;;;;;;;47.23;35.87;;;13.00;99.90;;;;;;4595214;19;20018;-27
2023/03/22 05:44:35;;;;;;;46.38;36.15;;;13.00;99.90;;;;;;4596428;19;20471;-29
2023/03/22 05:46:07;;;;;;;49.55;36.45;;;13.10;99.90;;;;;;4596519;19;20460;-29
2023/03/22 05:47:39;;;;;;;49.73;34.60;;;13.10;99.90;;;;;;4593363;19;20495;-29
2023/03/22 05:49:10;;;;;;;46.03;35.80;;;13.10;99.90;;;;;;4593874;19;20031;-29
2023/03/22 05:50:41;;;;;;;48.75;37.10;;;13.10;99.90;;;;;;4593918;19;20468;-29
2023/03/22 05:52:13;;;;;;;;;;;13.10;99.90;;;;;;4595022;19;20123;-33
2023/03/22 05:53:47;;;;;;;50.20;37.00;;;13.10;99.90;;;;;;4594241;19;19918;-31
2023/03/22 05:55:18;;;;;;;51.22;37.95;;;13.10;99.90;;;;;;4593203;19;20018;-30
2023/03/22 05:56:50;;;;;;;49.80;40.67;;;13.10;99.90;;;;;;4593053;19;20520;-30
2023/03/22 05:58:23;;;;;;;48.13;38.40;;;13.20;99.90;;;;;;4590926;19;20019;-29
2023/03/22 05:59:55;;;;;;;48.03;40.20;;;13.30;99.90;;;;;;4593442;19;20375;-30
2023/03/22 06:01:26;;;;;;;;;;;13.40;99.90;;;;;;4592708;19;20029;-28
2023/03/22 06:03:02;;;;;;;73.13;65.47;;;13.40;99.90;;;;;;4592069;19;19923;-29
2023/03/22 06:04:33;;;;;;;68.80;61.30;;;13.50;99.90;;;;;;4594645;19;20011;-30
2023/03/22 06:06:09;;;;;;;68.15;61.28;;;13.50;99.90;;;;;;4593724;19;20036;-30
2023/03/22 06:07:40;;;;;;;56.37;49.63;;;13.60;99.90;;;;;;4594208;19;20042;-29
2023/03/22 06:09:13;;;;;;;54.72;46.67;;;13.60;99.90;;;;;;4594012;19;20014;-28
2023/03/22 06:10:47;;;;;;;54.37;41.00;;;13.60;99.90;;;;;;4593004;19;20018;-33
2023/03/22 06:12:23;;;;;;;49.20;36.90;;;13.70;99.90;;;;;;4591888;19;20019;-26
2023/03/22 06:13:54;;;;;;;46.23;35.57;;;13.70;99.90;;;;;;4590346;19;20519;-30
2023/03/22 06:15:26;;;;;;;46.23;35.77;;;13.70;99.90;;;;;;4591934;19;20038;-29
2023/03/22 06:16:58;;;;;;;45.95;37.15;;;13.70;99.90;;;;;;4591987;19;20017;-33
2023/03/22 06:18:30;;;;;;;48.60;39.22;;;13.70;99.90;;;;;;4590862;19;20010;-30
2023/03/22 06:20:08;;;;;;;48.60;39.90;;;13.70;99.90;;;;;;4591684;19;20480;-28
2023/03/22 06:21:40;;;;;;;46.00;37.60;;;13.70;99.90;;;;;;4593320;19;20078;-29
2023/03/22 06:23:12;;;;;;;49.73;39.57;;;13.70;99.90;;;;;;4593549;19;20503;-28
2023/03/22 06:24:43;;;;;;;46.58;36.28;;;13.70;99.90;;;;;;4591672;19;20014;-27
2023/03/22 06:26:15;;;;;;;45.45;36.30;;;13.70;99.90;;;;;;4592509;19;20006;-30
2023/03/22 06:27:47;;;;;;;44.33;34.75;;;13.60;99.90;;;;;;4592865;19;20496;-27
2023/03/22 06:29:20;;;;;;;47.17;35.60;;;13.70;99.90;;;;;;4591990;19;20010;-30
2023/03/22 06:30:52;;;;;;;43.37;36.37;;;13.70;99.90;;;;;;4592323;19;20037;-32
2023/03/22 06:32:25;;;;;;;49.20;37.90;;;13.70;99.90;;;;;;4593965;19;20018;-32
2023/03/22 06:33:57;;;;;;;48.43;37.87;;;13.60;99.90;;;;;;4592364;19;20487;-28
2023/03/22 06:35:29;;;;;;;;;;;13.70;99.90;;;;;;4592655;19;20010;-30
2023/03/22 06:37:00;;;;;;;51.83;39.07;;;13.70;99.90;;;;;;4592976;19;19925;-29
2023/03/22 06:38:33;;;;;;;50.27;37.83;;;13.50;99.90;;;;;;4592012;19;20030;-29
2023/03/22 06:40:08;;;;;;;51.27;39.93;;;13.50;99.90;;;;;;4592452;19;20041;-31
2023/03/22 06:41:39;;;;;;;44.87;36.67;;;13.50;99.90;;;;;;4593035;19;20027;-31
2023/03/22 06:43:10;;;;;;;52.00;39.60;;;13.60;99.90;;;;;;4592402;19;20031;-30
2023/03/22 06:47:19;;;;;;;56.03;41.60;;;11.90;99.90;;;;;;4441420;19;3185119;-29
2023/03/22 06:48:50;;;;;;;54.55;39.53;;;12.00;99.90;;;;;;4612375;19;20014;-30
2023/03/22 06:50:23;;;;;;;50.50;38.93;;;12.30;99.90;;;;;;4612225;19;20010;-28
2023/03/22 06:51:55;;;;;;;52.63;38.70;;;12.50;99.90;;;;;;4611086;19;20429;-30
2023/03/22 06:53:27;;;;;;;58.80;40.63;;;12.70;99.90;;;;;;4610297;19;20032;-27
2023/03/22 06:55:00;;;;;;;51.97;38.07;;;12.80;99.90;;;;;;4611887;19;20019;-28
2023/03/22 06:58:22;;;;;;;55.37;39.83;;;13.20;99.90;;;;;;4611284;19;20003;-29
2023/03/22 06:59:53;;;;;;;55.20;44.92;;;13.20;99.90;;;;;;4612504;19;20378;-29
2023/03/22 07:01:25;;;;;;;53.03;45.20;;;13.20;99.90;;;;;;4612418;19;20040;-28
2023/03/22 07:02:58;;;;;;;48.23;39.20;;;13.20;99.90;;;;;;4612821;19;20023;-31
2023/03/22 07:04:32;;;;;;;53.63;41.43;;;13.30;99.90;;;;;;4612969;19;20010;-30
2023/03/22 07:06:06;;;;;;;54.73;39.63;;;13.30;99.90;;;;;;4609752;19;20433;-31
2023/03/22 07:07:38;;;;;;;71.53;45.73;;;13.30;99.90;;;;;;4612327;19;20018;-28
2023/03/22 07:09:11;;;;;;;69.50;48.23;;;13.40;99.90;;;;;;4612117;19;20014;-27
2023/03/22 07:10:49;;;;;;;65.63;44.93;;;13.30;99.90;;;;;;4612322;19;20082;-29
2023/03/22 07:12:22;;;;;;;61.87;43.13;;;13.30;99.90;;;;;;4610544;19;20018;-30
2023/03/22 07:13:54;;;;;;;67.90;44.93;;;13.50;99.90;;;;;;4612158;19;20029;-28
2023/03/22 07:15:33;;;;;;;63.13;42.13;;;13.50;99.90;;;;;;4608973;19;20021;-29
2023/03/22 07:17:05;;;;;;;60.13;41.37;;;13.40;99.90;;;;;;4612001;19;20018;-29
2023/03/22 07:18:38;;;;;;;82.47;60.60;;;13.30;99.90;;;;;;4611836;19;20471;-27
2023/03/22 07:20:12;;;;;;;109.47;82.50;;;13.30;99.90;;;;;;4612079;19;20485;-29
2023/03/22 07:21:46;;;;;;;83.37;61.60;;;13.20;99.90;;;;;;4612071;19;20018;-28
2023/03/22 07:23:17;;;;;;;80.22;55.00;;;13.20;99.90;;;;;;4612217;19;20027;-29
2023/03/22 07:24:50;;;;;;;55.07;49.10;;;13.30;99.90;;;;;;4611228;19;20014;-28
2023/03/22 07:26:24;;;;;;;59.90;51.37;;;12.90;99.90;;;;;;4612145;19;20037;-29
2023/03/22 07:27:57;;;;;;;67.10;57.23;;;11.40;99.90;;;;;;4611797;19;20445;-28
2023/03/22 07:29:28;;;;;;;63.00;54.42;;;10.60;99.90;;;;;;4611179;19;20786;-30
2023/03/22 07:31:10;;;;;;;72.90;58.60;;;10.20;99.90;;;;;;4611515;19;20092;-31
2023/03/22 07:32:43;;;;;;;69.47;56.53;;;10.10;99.90;;;;;;4611517;19;20865;-29
2023/03/22 07:34:15;;;;;;;68.20;56.95;;;10.00;99.90;;;;;;4612193;19;20447;-28
2023/03/22 07:35:47;;;;;;;71.17;59.37;;;10.00;99.90;;;;;;4611886;19;20070;-30
2023/03/22 07:37:21;;;;;;;88.77;75.43;;;10.00;99.90;;;;;;4611658;19;20425;-31
2023/03/22 07:38:53;;;;;;;78.40;69.80;;;10.00;99.90;;;;;;4611383;19;21065;-28
2023/03/22 07:40:24;;;;;;;89.03;79.35;;;10.00;99.90;;;;;;4612349;19;20515;-30
2023/03/22 07:41:56;;;;;;;75.67;66.30;;;10.00;99.90;;;;;;4612489;19;20067;-27
2023/03/22 07:43:29;;;;;;;74.17;59.03;;;10.00;99.90;;;;;;4611485;19;20436;-28
2023/03/22 07:45:00;;;;;;;65.47;53.30;;;10.00;99.90;;;;;;4611384;19;20523;-27
2023/03/22 07:46:32;;;;;;;64.63;52.10;;;10.00;99.90;;;;;;4608419;19;20415;-28
2023/03/22 07:48:11;;;;;;;66.47;54.70;;;10.00;99.90;;;;;;4610505;19;20445;-31
2023/03/22 07:49:42;;;;;;;64.57;54.47;;;10.00;99.90;;;;;;4611293;19;20441;-27
2023/03/22 07:51:16;;;;;;;62.13;53.93;;;10.10;99.90;;;;;;4611713;19;20029;-30
2023/03/22 07:52:47;;;;;;;63.72;52.90;;;10.10;99.90;;;;;;4612221;19;20527;-29
2023/03/22 07:54:19;;;;;;;61.53;51.73;;;10.10;99.90;;;;;;4610498;19;20047;-30
2023/03/22 07:55:51;;;;;;;63.73;53.87;;;10.10;99.90;;;;;;4610524;19;20442;-28
2023/03/22 07:57:22;;;;;;;61.28;52.72;;;10.10;99.90;;;;;;4598520;19;20515;-27
2023/03/22 07:58:54;;;;;;;63.13;51.75;;;10.10;99.90;;;;;;4594138;19;20014;-29
2023/03/22 08:00:27;;;;;;;66.33;46.30;;;10.10;99.90;;;;;;4592426;19;20420;-28
2023/03/22 08:01:59;;;;;;;67.27;45.70;;;10.40;99.90;;;;;;4591700;19;20441;-29
2023/03/22 08:03:32;;;;;;;62.13;43.73;;;10.70;99.90;;;;;;4593050;19;20805;-29
2023/03/22 08:05:04;;;;;;;61.25;43.97;;;11.00;99.90;;;;;;4593219;19;20787;-28
2023/03/22 08:06:36;;;;;;;58.07;41.30;;;11.30;99.90;;;;;;4593050;19;20041;-30
2023/03/22 08:08:12;;;;;;;58.93;43.77;;;11.60;99.90;;;;;;4593018;19;20758;-28